createdAt,value
2022-09-01T00:01:22.304Z,13.97
2022-09-01T00:06:26.812Z,14.03
2022-09-01T00:11:30.974Z,13.59
2022-09-01T00:16:36.348Z,13.48
2022-09-01T00:21:45.522Z,13.29
2022-09-01T00:26:50.777Z,13.35
2022-09-01T00:32:03.121Z,13.81
2022-09-01T00:37:12.827Z,13.42
2022-09-01T00:42:22.745Z,13.17
2022-09-01T00:47:40.830Z,13.29
2022-09-01T00:52:57.536Z,13.26
2022-09-01T00:58:19.963Z,13.16
2022-09-01T01:03:44.580Z,13.13
2022-09-01T01:09:03.236Z,13.90
2022-09-01T01:14:16.086Z,13.49
2022-09-01T01:19:43.518Z,13.41
2022-09-01T01:25:08.641Z,13.19
2022-09-01T01:30:17.654Z,13.54
2022-09-01T01:35:31.459Z,13.90
2022-09-01T01:40:39.158Z,13.31
2022-09-01T01:45:52.101Z,13.74
2022-09-01T01:51:12.775Z,13.29
2022-09-01T01:56:24.703Z,13.06
2022-09-01T02:01:46.565Z,12.96
2022-09-01T02:06:52.779Z,13.27
2022-09-01T02:12:16.001Z,13.86
2022-09-01T02:17:22.567Z,13.02
2022-09-01T02:22:32.830Z,13.20
2022-09-01T02:27:56.806Z,12.89
2022-09-01T02:33:18.967Z,12.61
2022-09-01T02:38:38.932Z,12.65
2022-09-01T02:43:51.556Z,13.00
2022-09-01T02:54:47.830Z,13.44
2022-09-01T03:00:15.678Z,12.71
2022-09-01T03:05:25.546Z,12.74
2022-09-01T03:10:37.990Z,12.94
2022-09-01T03:15:45.754Z,12.96
2022-09-01T03:26:27.606Z,13.15
2022-09-01T03:31:41.178Z,13.34
2022-09-01T03:36:50.621Z,13.37
2022-09-01T03:42:00.266Z,12.97
2022-09-01T03:47:10.874Z,12.76
2022-09-01T03:52:13.602Z,12.87
2022-09-01T03:57:18.444Z,12.95
2022-09-01T04:02:33.932Z,12.38
2022-09-01T04:07:38.846Z,12.50
2022-09-01T04:12:48.708Z,12.23
2022-09-01T04:18:11.658Z,12.01
2022-09-01T04:23:26.481Z,12.19
2022-09-01T04:28:47.066Z,11.85
2022-09-01T04:33:53.676Z,11.94
2022-09-01T04:38:58.797Z,11.96
2022-09-01T04:44:04.779Z,11.35
2022-09-01T04:49:13.071Z,11.42
2022-09-01T04:54:16.506Z,11.13
2022-09-01T04:59:21.622Z,13.52
2022-09-01T05:04:28.337Z,14.58
2022-09-01T05:09:35.571Z,15.19
2022-09-01T05:14:38.415Z,14.49
2022-09-01T05:19:45.107Z,12.70
2022-09-01T05:24:51.459Z,12.50
2022-09-01T05:30:00.177Z,14.12
2022-09-01T05:35:08.255Z,13.45
2022-09-01T05:40:16.104Z,13.74
2022-09-01T05:45:23.326Z,14.51
2022-09-01T05:50:28.305Z,14.15
2022-09-01T05:55:35.741Z,14.33
2022-09-01T06:00:38.596Z,14.50
2022-09-01T06:05:43.354Z,14.87
2022-09-01T06:10:46.030Z,14.56
2022-09-01T06:15:49.476Z,14.69
2022-09-01T06:20:53.424Z,15.18
2022-09-01T06:25:55.998Z,15.48
2022-09-01T06:30:58.844Z,15.57
2022-09-01T06:36:04.099Z,15.53
2022-09-01T06:41:13.149Z,16.12
2022-09-01T06:46:15.861Z,16.24
2022-09-01T06:51:22.234Z,16.12
2022-09-01T06:56:26.850Z,16.04
2022-09-01T07:01:35.377Z,16.19
2022-09-01T07:17:28.473Z,16.54
2022-09-01T07:22:36.085Z,16.57
2022-09-01T07:43:53.300Z,16.82
2022-09-01T07:54:24.057Z,17.67
2022-09-01T07:59:29.850Z,18.02
2022-09-01T08:04:34.032Z,18.02
2022-09-01T08:09:44.135Z,18.61
2022-09-01T08:14:47.209Z,18.85
2022-09-01T08:19:49.723Z,18.97
2022-09-01T08:24:54.796Z,19.54
2022-09-01T08:30:00.870Z,19.41
2022-09-01T08:35:05.367Z,19.61
2022-09-01T08:40:13.163Z,19.79
2022-09-01T08:45:23.628Z,20.46
2022-09-01T08:50:29.462Z,20.32
2022-09-01T08:55:39.335Z,20.80
2022-09-01T09:00:50.509Z,20.62
2022-09-01T09:06:11.788Z,21.00
2022-09-01T09:11:36.826Z,20.94
2022-09-01T09:16:43.217Z,21.26
2022-09-01T09:21:47.662Z,21.21
2022-09-01T09:26:54.028Z,21.15
2022-09-01T09:32:06.686Z,21.79
2022-09-01T09:37:25.432Z,21.83
2022-09-01T09:42:34.924Z,22.09
2022-09-01T09:47:44.870Z,22.32
2022-09-01T09:52:48.710Z,22.23
2022-09-01T09:57:57.326Z,22.21
2022-09-01T10:03:04.466Z,22.30
2022-09-01T10:08:12.741Z,23.22
2022-09-01T10:13:18.930Z,23.59
2022-09-01T10:18:29.496Z,23.92
2022-09-01T10:23:36.262Z,23.35
2022-09-01T10:28:50.719Z,22.39
2022-09-01T10:33:58.717Z,22.45
2022-09-01T10:39:06.175Z,21.84
2022-09-01T10:44:20.400Z,22.07
2022-09-01T10:49:59.045Z,21.58
2022-09-01T10:55:04.270Z,23.28
2022-09-01T11:01:10.585Z,24.67
2022-09-01T11:06:12.946Z,23.79
2022-09-01T11:11:31.059Z,23.67
2022-09-01T11:16:53.191Z,24.44
2022-09-01T11:22:12.849Z,23.54
2022-09-01T11:27:52.116Z,25.21
2022-09-01T11:33:11.769Z,27.41
2022-09-01T11:38:22.584Z,25.16
2022-09-01T11:43:31.610Z,23.65
2022-09-01T11:48:39.277Z,23.80
2022-09-01T11:53:47.758Z,24.05
2022-09-01T11:58:50.340Z,23.88
2022-09-01T12:03:54.327Z,23.64
2022-09-01T12:09:00.311Z,23.16
2022-09-01T12:14:10.928Z,24.17
2022-09-01T12:19:24.409Z,23.32
2022-09-01T12:24:28.707Z,23.04
2022-09-01T12:29:33.146Z,22.90
2022-09-01T12:34:46.608Z,23.44
2022-09-01T12:39:52.920Z,23.31
2022-09-01T12:44:59.360Z,23.04
2022-09-01T12:50:03.643Z,22.92
2022-09-01T13:00:56.887Z,23.14
2022-09-01T13:06:00.686Z,22.60
2022-09-01T13:11:07.265Z,23.26
2022-09-01T13:16:13.041Z,25.38
2022-09-01T13:21:16.757Z,26.38
2022-09-01T13:26:20.848Z,26.52
2022-09-01T13:31:31.761Z,26.05
2022-09-01T13:36:52.340Z,26.35
2022-09-01T13:41:56.902Z,26.50
2022-09-01T13:46:59.866Z,25.36
2022-09-01T13:52:03.651Z,26.13
2022-09-01T13:57:07.963Z,27.24
2022-09-01T14:02:11.015Z,26.56
2022-09-01T14:07:13.709Z,25.50
2022-09-01T14:12:17.743Z,25.39
2022-09-01T14:17:20.373Z,25.45
2022-09-01T14:22:22.887Z,25.42
2022-09-01T14:27:26.869Z,26.14
2022-09-01T14:32:29.526Z,25.29
2022-09-01T14:37:32.087Z,26.45
2022-09-01T14:42:37.223Z,25.34
2022-09-01T14:47:39.760Z,25.51
2022-09-01T14:52:42.829Z,24.57
2022-09-01T14:57:46.761Z,24.33
2022-09-01T15:02:49.509Z,24.47
2022-09-01T15:07:52.341Z,24.28
2022-09-01T15:12:59.106Z,24.24
2022-09-01T15:18:03.140Z,24.61
2022-09-01T15:23:06.708Z,24.67
2022-09-01T15:28:10.798Z,24.63
2022-09-01T15:33:15.662Z,24.31
2022-09-01T15:38:18.852Z,23.32
2022-09-01T15:43:23.029Z,23.88
2022-09-01T15:48:26.199Z,23.44
2022-09-01T15:53:28.941Z,23.34
2022-09-01T15:58:44.499Z,23.25
2022-09-01T16:03:54.645Z,23.27
2022-09-01T16:08:57.616Z,23.05
2022-09-01T16:14:01.855Z,22.04
2022-09-01T16:19:12.900Z,22.21
2022-09-01T16:24:16.051Z,22.38
2022-09-01T16:29:25.344Z,22.43
2022-09-01T16:34:28.575Z,22.26
2022-09-01T16:39:40.822Z,22.15
2022-09-01T16:44:56.604Z,22.28
2022-09-01T16:50:09.940Z,21.83
2022-09-01T16:55:24.722Z,21.71
2022-09-01T17:00:37.170Z,22.18
2022-09-01T17:05:46.923Z,22.00
2022-09-01T17:10:55.163Z,22.44
2022-09-01T17:16:06.727Z,22.44
2022-09-01T17:21:14.642Z,22.45
2022-09-01T17:26:23.600Z,21.61
2022-09-01T17:31:49.544Z,21.23
2022-09-01T17:37:05.184Z,21.00
2022-09-01T17:42:21.612Z,20.51
2022-09-01T17:47:33.085Z,20.41
2022-09-01T17:52:52.628Z,19.87
2022-09-01T17:58:01.260Z,19.90
2022-09-01T18:03:22.648Z,19.70
2022-09-01T18:08:33.302Z,19.50
2022-09-01T18:13:53.001Z,19.45
2022-09-01T18:19:03.718Z,19.15
2022-09-01T18:24:15.057Z,19.10
2022-09-01T18:29:18.718Z,18.86
2022-09-01T18:34:36.034Z,18.64
2022-09-01T18:39:51.558Z,18.45
2022-09-01T18:45:05.448Z,18.58
2022-09-01T18:50:17.888Z,18.59
2022-09-01T18:55:28.099Z,18.60
2022-09-01T19:00:36.418Z,18.84
2022-09-01T19:06:07.926Z,19.06
2022-09-01T19:11:17.294Z,18.15
2022-09-01T19:16:39.184Z,18.50
2022-09-01T19:21:45.469Z,18.68
2022-09-01T19:26:51.853Z,18.83
2022-09-01T19:32:01.805Z,18.79
2022-09-01T19:37:07.008Z,18.53
2022-09-01T19:42:14.908Z,18.44
2022-09-01T19:47:26.390Z,18.17
2022-09-01T19:52:36.534Z,17.75
2022-09-01T19:57:45.573Z,17.39
2022-09-01T20:02:55.754Z,17.34
2022-09-01T20:08:04.355Z,17.94
2022-09-01T20:13:25.022Z,17.96
2022-09-01T20:18:31.552Z,17.07
2022-09-01T20:23:43.268Z,17.41
2022-09-01T20:28:52.013Z,16.64
2022-09-01T20:33:59.358Z,15.94
2022-09-01T20:39:27.882Z,15.67
2022-09-01T20:44:37.272Z,15.47
2022-09-01T20:49:41.149Z,16.14
2022-09-01T20:54:51.981Z,17.06
2022-09-01T20:59:56.613Z,17.56
2022-09-01T21:05:09.051Z,17.51
2022-09-01T21:10:22.278Z,16.00
2022-09-01T21:15:35.406Z,16.90
2022-09-01T21:20:50.918Z,16.03
2022-09-01T21:25:54.988Z,15.90
2022-09-01T21:31:00.196Z,15.85
2022-09-01T21:36:03.479Z,15.26
2022-09-01T21:41:12.973Z,14.76
2022-09-01T21:46:16.429Z,14.58
2022-09-01T21:51:19.037Z,14.38
2022-09-01T21:56:25.907Z,14.14
2022-09-01T22:01:31.088Z,13.89
2022-09-01T22:06:34.110Z,13.72
2022-09-01T22:11:38.320Z,13.59
2022-09-01T22:16:41.057Z,14.17
2022-09-01T22:21:44.176Z,14.45
2022-09-01T22:26:49.196Z,14.27
2022-09-01T22:31:52.113Z,13.19
2022-09-01T22:36:54.776Z,13.64
2022-09-01T22:41:58.960Z,14.22
2022-09-01T22:47:01.484Z,13.77
2022-09-01T22:52:04.689Z,13.63
2022-09-01T22:57:08.567Z,13.25
2022-09-01T23:02:11.844Z,13.73
2022-09-01T23:07:14.843Z,13.36
2022-09-01T23:12:18.833Z,13.28
2022-09-01T23:17:21.475Z,13.23
2022-09-01T23:22:23.990Z,13.81
2022-09-01T23:27:27.921Z,14.60
2022-09-01T23:32:30.889Z,14.78
2022-09-01T23:37:35.253Z,15.17
2022-09-01T23:42:39.369Z,15.21
2022-09-01T23:47:42.544Z,15.18
2022-09-01T23:52:46.221Z,15.06
2022-09-01T23:57:50.333Z,15.19
